Time;durP1;ratioP1;P1;durP2;ratioP2;P2;SDS_P1;SDS_P2;PMS_P1;PMS_P2;Temp;Humidity;BMP_temperature;BMP_pressure;BME280_temperature;BME280_humidity;BME280_pressure;Samples;Min_cycle;Max_cycle;Signal;HPM_P1;HPM_P2
2021/08/06 00:01:12;;;;;;;16.67;8.73;;;;;;;;;;5095982;28;20027;-72
2021/08/06 00:03:38;;;;;;;21.65;9.13;;;;;;;;;;5096633;28;20035;-73
2021/08/06 00:06:04;;;;;;;17.15;8.48;;;;;;;;;;5095969;28;20431;-72
2021/08/06 00:08:31;;;;;;;16.70;9.35;;;;;;;;;;5096220;28;20056;-72
2021/08/06 00:10:57;;;;;;;15.82;9.50;;;;;;;;;;5096272;28;20020;-73
2021/08/06 00:13:23;;;;;;;19.42;8.90;;;;;;;;;;5095574;28;20032;-72
2021/08/06 00:15:49;;;;;;;22.42;9.52;;;;;;;;;;5096045;28;20081;-72
2021/08/06 00:18:16;;;;;;;18.63;8.77;;;;;;;;;;5096038;28;20472;-72
2021/08/06 00:20:42;;;;;;;17.75;8.30;;;;;;;;;;5095639;28;20028;-72
2021/08/06 00:23:08;;;;;;;18.45;8.93;;;;;;;;;;5096028;28;20024;-72
2021/08/06 00:25:34;;;;;;;16.05;8.82;;;;;;;;;;5095739;28;20498;-72
2021/08/06 00:28:00;;;;;;;16.55;8.70;;;;;;;;;;5093880;28;20119;-72
2021/08/06 00:30:27;;;;;;;16.90;9.02;;;;;;;;;;5095789;28;20095;-73
2021/08/06 00:32:53;;;;;;;17.52;8.25;;;;;;;;;;5095591;28;20048;-72
2021/08/06 00:35:20;;;;;;;14.35;7.60;;;;;;;;;;5095321;28;20028;-72
2021/08/06 00:37:46;;;;;;;19.67;9.77;;;;;;;;;;5095603;28;20058;-72
2021/08/06 00:40:12;;;;;;;16.58;8.35;;;;;;;;;;5094334;28;20028;-72
2021/08/06 00:42:39;;;;;;;15.23;8.55;;;;;;;;;;5093927;28;20139;-72
2021/08/06 00:45:05;;;;;;;19.02;8.95;;;;;;;;;;5095493;28;20020;-72
2021/08/06 00:47:32;;;;;;;17.45;7.90;;;;;;;;;;5095708;28;20484;-72
2021/08/06 00:49:59;;;;;;;18.58;7.55;;;;;;;;;;5094969;28;20531;-72
2021/08/06 00:52:25;;;;;;;18.42;8.68;;;;;;;;;;5095360;28;20414;-72
2021/08/06 00:54:52;;;;;;;19.48;7.80;;;;;;;;;;5095207;28;20032;-72
2021/08/06 00:57:18;;;;;;;17.15;8.70;;;;;;;;;;5094865;28;20016;-72
2021/08/06 00:59:44;;;;;;;18.38;7.97;;;;;;;;;;5095395;28;20480;-72
2021/08/06 01:02:31;;;;;;;15.77;6.15;;;;;;;;;;5094854;28;20023;-72
2021/08/06 01:05:05;;;;;;;14.82;6.85;;;;;;;;;;5095151;28;20048;-71
2021/08/06 01:07:51;;;;;;;13.90;7.40;;;;;;;;;;5093626;28;20024;-71
2021/08/06 01:10:21;;;;;;;14.55;6.28;;;;;;;;;;5086128;28;20028;-71
2021/08/06 01:12:55;;;;;;;16.38;6.60;;;;;;;;;;5094935;28;20495;-71
2021/08/06 01:15:21;;;;;;;15.00;6.25;;;;;;;;;;5094915;28;20035;-71
2021/08/06 01:17:48;;;;;;;12.50;5.85;;;;;;;;;;5094446;28;20046;-72
2021/08/06 01:20:16;;;;;;;9.85;5.18;;;;;;;;;;5094748;28;20044;-72
2021/08/06 01:22:47;;;;;;;10.73;5.30;;;;;;;;;;5094751;28;20049;-72
2021/08/06 01:25:16;;;;;;;12.45;5.22;;;;;;;;;;5094348;28;20056;-72
2021/08/06 01:27:45;;;;;;;9.50;4.63;;;;;;;;;;5094711;28;20016;-72
2021/08/06 01:30:12;;;;;;;13.75;5.68;;;;;;;;;;5094599;28;20081;-72
2021/08/06 01:32:39;;;;;;;13.57;5.53;;;;;;;;;;5093941;28;20529;-71
2021/08/06 01:35:07;;;;;;;15.32;5.53;;;;;;;;;;5094732;28;20024;-72
2021/08/06 01:37:33;;;;;;;13.55;5.65;;;;;;;;;;5093827;28;20027;-72
2021/08/06 01:40:01;;;;;;;13.23;5.65;;;;;;;;;;5094478;28;20076;-72
2021/08/06 01:42:36;;;;;;;7.93;4.38;;;;;;;;;;5093092;28;20047;-72
2021/08/06 01:45:05;;;;;;;10.55;5.35;;;;;;;;;;5092636;28;20085;-72
2021/08/06 01:47:42;;;;;;;11.32;4.97;;;;;;;;;;5094248;28;20039;-72
2021/08/06 01:50:10;;;;;;;9.55;4.43;;;;;;;;;;5094494;28;20027;-72
2021/08/06 01:52:54;;;;;;;9.73;4.20;;;;;;;;;;5093850;28;20020;-72
2021/08/06 01:55:21;;;;;;;8.32;4.30;;;;;;;;;;5094527;28;20042;-72
2021/08/06 01:57:48;;;;;;;9.68;4.30;;;;;;;;;;5094127;28;20536;-72
2021/08/06 02:00:15;;;;;;;9.25;4.15;;;;;;;;;;5093706;28;20031;-72
2021/08/06 02:02:41;;;;;;;9.40;4.05;;;;;;;;;;5092724;28;20110;-72
2021/08/06 02:05:10;;;;;;;9.10;3.95;;;;;;;;;;5093995;28;20511;-72
2021/08/06 02:07:36;;;;;;;9.07;3.70;;;;;;;;;;5093615;28;20031;-72
2021/08/06 02:10:03;;;;;;;7.15;4.25;;;;;;;;;;5094249;28;20031;-72
2021/08/06 02:12:30;;;;;;;9.55;4.55;;;;;;;;;;5093699;28;20027;-71
2021/08/06 02:14:56;;;;;;;8.18;3.90;;;;;;;;;;5093766;28;20032;-71
2021/08/06 02:17:23;;;;;;;7.57;4.10;;;;;;;;;;5093809;28;20372;-71
2021/08/06 02:19:50;;;;;;;11.68;4.85;;;;;;;;;;5093390;28;20116;-71
2021/08/06 02:22:17;;;;;;;9.27;4.75;;;;;;;;;;5093744;28;20047;-71
2021/08/06 02:24:43;;;;;;;8.23;4.20;;;;;;;;;;5092481;28;20035;-71
2021/08/06 02:27:11;;;;;;;8.68;4.50;;;;;;;;;;5092049;28;20420;-70
2021/08/06 02:29:38;;;;;;;10.43;4.40;;;;;;;;;;5093650;28;20425;-70
2021/08/06 02:32:04;;;;;;;10.52;4.65;;;;;;;;;;5092120;28;20028;-70
2021/08/06 02:34:31;;;;;;;13.45;4.80;;;;;;;;;;5093328;28;20491;-70
2021/08/06 02:36:58;;;;;;;14.20;4.68;;;;;;;;;;5093576;28;20024;-70
2021/08/06 02:39:26;;;;;;;8.35;3.88;;;;;;;;;;5093589;28;20066;-70
2021/08/06 02:41:52;;;;;;;9.65;4.60;;;;;;;;;;5093191;28;20105;-70
2021/08/06 02:44:18;;;;;;;10.98;4.88;;;;;;;;;;5093886;28;20479;-70
2021/08/06 02:46:45;;;;;;;9.13;3.97;;;;;;;;;;5093786;28;20086;-72
2021/08/06 02:49:11;;;;;;;8.02;3.72;;;;;;;;;;5093765;28;20062;-71
2021/08/06 02:51:37;;;;;;;8.13;3.83;;;;;;;;;;5097689;28;20024;-71
2021/08/06 02:54:03;;;;;;;8.02;3.67;;;;;;;;;;5097590;28;20432;-71
2021/08/06 02:56:30;;;;;;;7.32;3.83;;;;;;;;;;5097306;28;20059;-71
2021/08/06 02:58:56;;;;;;;8.43;4.45;;;;;;;;;;5097509;28;20023;-71
2021/08/06 03:01:22;;;;;;;7.43;4.03;;;;;;;;;;5097530;28;20094;-71
2021/08/06 03:03:48;;;;;;;10.27;5.38;;;;;;;;;;5097055;28;20016;-71
2021/08/06 03:06:15;;;;;;;9.60;4.30;;;;;;;;;;5097442;28;20027;-71
2021/08/06 03:08:41;;;;;;;9.65;4.28;;;;;;;;;;5096095;28;20111;-71
2021/08/06 03:11:07;;;;;;;13.32;4.30;;;;;;;;;;5095627;28;20039;-71
2021/08/06 03:13:33;;;;;;;17.55;5.22;;;;;;;;;;5097336;28;20040;-71
2021/08/06 03:15:59;;;;;;;9.38;4.18;;;;;;;;;;5095635;28;20384;-71
2021/08/06 03:18:26;;;;;;;10.93;4.10;;;;;;;;;;5097285;28;20028;-71
2021/08/06 03:20:52;;;;;;;9.70;4.82;;;;;;;;;;5097057;28;20012;-71
2021/08/06 03:23:18;;;;;;;10.50;4.55;;;;;;;;;;5096637;28;20476;-71
2021/08/06 03:25:44;;;;;;;11.00;4.72;;;;;;;;;;5096992;28;20391;-71
2021/08/06 03:28:10;;;;;;;11.35;4.55;;;;;;;;;;5097218;28;20185;-71
2021/08/06 03:30:37;;;;;;;10.80;4.72;;;;;;;;;;5095264;28;20384;-71
2021/08/06 03:33:03;;;;;;;9.52;3.80;;;;;;;;;;5095314;28;20043;-71
2021/08/06 03:35:29;;;;;;;11.05;5.22;;;;;;;;;;5096871;28;20024;-71
2021/08/06 03:37:55;;;;;;;11.18;5.28;;;;;;;;;;5095122;28;20103;-71
2021/08/06 03:40:21;;;;;;;8.40;4.28;;;;;;;;;;5096776;28;20464;-71
2021/08/06 03:42:48;;;;;;;11.18;4.80;;;;;;;;;;5096762;28;20020;-71
2021/08/06 03:45:14;;;;;;;10.13;4.50;;;;;;;;;;5096167;28;20020;-71
2021/08/06 03:49:02;;;;;;;11.10;4.60;;;;;;;;;;5111344;27;21033;-71
2021/08/06 03:51:29;;;;;;;12.20;4.53;;;;;;;;;;5111027;28;20107;-71
2021/08/06 03:53:55;;;;;;;9.60;4.90;;;;;;;;;;5111270;28;20020;-71
2021/08/06 03:56:21;;;;;;;15.48;5.25;;;;;;;;;;5111282;28;20028;-71
2021/08/06 03:58:47;;;;;;;12.20;5.00;;;;;;;;;;5110856;28;20050;-71
2021/08/06 04:01:14;;;;;;;11.00;5.35;;;;;;;;;;5111724;28;20368;-71
2021/08/06 04:03:40;;;;;;;14.23;5.65;;;;;;;;;;5111082;28;20080;-71
2021/08/06 04:06:06;;;;;;;12.93;4.70;;;;;;;;;;5110784;28;20027;-71
2021/08/06 04:08:32;;;;;;;11.68;6.03;;;;;;;;;;5110923;28;20096;-71
2021/08/06 04:10:59;;;;;;;13.95;5.03;;;;;;;;;;5109667;28;20507;-71
2021/08/06 04:13:25;;;;;;;11.40;5.32;;;;;;;;;;5110678;28;20028;-70
2021/08/06 04:15:51;;;;;;;19.55;5.78;;;;;;;;;;5111025;28;20027;-70
2021/08/06 04:18:17;;;;;;;9.35;5.03;;;;;;;;;;5110884;28;20081;-70
2021/08/06 04:20:43;;;;;;;10.88;5.55;;;;;;;;;;5109094;28;20027;-70
2021/08/06 04:23:09;;;;;;;14.80;5.90;;;;;;;;;;5109497;28;20445;-71
2021/08/06 04:25:36;;;;;;;12.23;5.80;;;;;;;;;;5110704;28;20048;-71
2021/08/06 04:28:02;;;;;;;12.65;5.57;;;;;;;;;;5110152;28;20036;-71
2021/08/06 04:30:28;;;;;;;12.95;5.32;;;;;;;;;;5110725;28;20031;-71
2021/08/06 04:32:54;;;;;;;14.68;5.05;;;;;;;;;;5110638;28;20102;-71
2021/08/06 04:35:21;;;;;;;9.77;5.07;;;;;;;;;;5108923;28;20043;-71
2021/08/06 04:37:57;;;;;;;12.52;5.07;;;;;;;;;;5110550;28;20020;-72
2021/08/06 04:40:24;;;;;;;11.75;6.13;;;;;;;;;;5110083;28;20103;-71
2021/08/06 04:42:50;;;;;;;17.80;5.00;;;;;;;;;;5110460;28;20387;-71
2021/08/06 04:45:16;;;;;;;10.55;4.55;;;;;;;;;;5110295;28;20034;-71
2021/08/06 04:47:46;;;;;;;9.13;3.80;;;;;;;;;;5109747;28;20078;-72
2021/08/06 04:50:13;;;;;;;14.50;5.40;;;;;;;;;;5110221;28;20028;-71
2021/08/06 04:54:37;;;;;;;14.70;5.45;;;;;;;;;;5110882;27;20389;-71
2021/08/06 04:57:04;;;;;;;12.73;4.35;;;;;;;;;;5111168;28;20028;-71
2021/08/06 04:59:30;;;;;;;13.05;5.18;;;;;;;;;;5111286;28;20028;-71
2021/08/06 05:01:56;;;;;;;10.05;5.03;;;;;;;;;;5109512;28;20020;-71
2021/08/06 05:04:22;;;;;;;10.80;4.68;;;;;;;;;;5109864;28;20032;-71
2021/08/06 05:06:48;;;;;;;9.63;4.45;;;;;;;;;;5111079;28;20376;-71
2021/08/06 05:09:14;;;;;;;8.65;3.85;;;;;;;;;;5110972;28;20031;-71
2021/08/06 05:11:41;;;;;;;14.23;4.32;;;;;;;;;;5111005;28;20020;-71
2021/08/06 05:14:07;;;;;;;15.15;3.63;;;;;;;;;;5111135;28;20032;-71
2021/08/06 05:16:33;;;;;;;8.20;3.63;;;;;;;;;;5110613;28;20480;-72
2021/08/06 05:19:00;;;;;;;8.40;3.75;;;;;;;;;;5110995;28;20562;-72
2021/08/06 05:21:26;;;;;;;8.70;3.35;;;;;;;;;;5109619;28;20369;-71
2021/08/06 05:23:52;;;;;;;10.45;3.70;;;;;;;;;;5110444;28;20023;-72
2021/08/06 05:26:18;;;;;;;10.90;4.07;;;;;;;;;;5111031;28;20388;-72
2021/08/06 05:28:44;;;;;;;8.18;3.53;;;;;;;;;;5111373;28;20020;-72
2021/08/06 05:31:10;;;;;;;12.90;4.68;;;;;;;;;;5110278;28;20466;-72
2021/08/06 05:33:37;;;;;;;9.30;3.70;;;;;;;;;;5109177;28;20442;-72
2021/08/06 05:36:03;;;;;;;14.63;4.00;;;;;;;;;;5109278;28;20468;-72
2021/08/06 05:38:29;;;;;;;14.20;4.07;;;;;;;;;;5110170;28;20028;-73
2021/08/06 05:40:55;;;;;;;17.33;4.82;;;;;;;;;;5111088;28;20027;-72
2021/08/06 05:43:22;;;;;;;13.98;4.10;;;;;;;;;;5110463;28;20122;-72
2021/08/06 05:45:48;;;;;;;14.30;4.35;;;;;;;;;;5108779;28;20107;-72
2021/08/06 05:48:17;;;;;;;8.80;3.80;;;;;;;;;;5110327;28;20384;-72
2021/08/06 05:50:43;;;;;;;10.25;3.88;;;;;;;;;;5110022;28;20112;-71
2021/08/06 05:53:09;;;;;;;11.93;4.30;;;;;;;;;;5109905;28;20048;-72
2021/08/06 05:55:36;;;;;;;10.10;4.30;;;;;;;;;;5110761;28;20507;-72
2021/08/06 05:58:02;;;;;;;16.33;4.82;;;;;;;;;;5108553;28;20027;-72
2021/08/06 06:00:28;;;;;;;12.02;4.30;;;;;;;;;;5108812;28;20103;-72
2021/08/06 06:02:54;;;;;;;7.95;3.90;;;;;;;;;;5110095;28;20492;-72
2021/08/06 06:05:20;;;;;;;10.48;3.95;;;;;;;;;;5099345;28;20028;-72
2021/08/06 06:07:47;;;;;;;15.45;5.07;;;;;;;;;;5096502;28;20030;-71
2021/08/06 06:10:14;;;;;;;14.77;4.15;;;;;;;;;;5096416;28;20375;-72
2021/08/06 06:12:41;;;;;;;10.73;4.15;;;;;;;;;;5095878;28;20353;-72
2021/08/06 06:15:07;;;;;;;8.77;3.88;;;;;;;;;;5096272;28;20028;-72
2021/08/06 06:17:33;;;;;;;10.60;4.00;;;;;;;;;;5095094;28;20403;-72
2021/08/06 06:20:00;;;;;;;9.57;3.90;;;;;;;;;;5095674;28;20077;-71
2021/08/06 06:22:26;;;;;;;8.70;4.22;;;;;;;;;;5092619;28;20052;-71
2021/08/06 06:24:52;;;;;;;7.28;3.38;;;;;;;;;;5093260;28;20498;-70
2021/08/06 06:27:18;;;;;;;11.18;3.45;;;;;;;;;;5092653;28;20087;-70
2021/08/06 06:29:45;;;;;;;10.50;3.92;;;;;;;;;;5091407;28;20028;-73
2021/08/06 06:32:14;;;;;;;8.07;3.38;;;;;;;;;;5090553;28;20059;-73
2021/08/06 06:34:40;;;;;;;8.63;3.65;;;;;;;;;;5085988;28;20028;-74
2021/08/06 06:37:06;;;;;;;10.32;3.95;;;;;;;;;;5085593;28;20027;-72
2021/08/06 06:39:32;;;;;;;9.82;3.63;;;;;;;;;;5086965;28;20024;-73
2021/08/06 06:41:59;;;;;;;6.32;3.08;;;;;;;;;;5090515;28;20502;-75
2021/08/06 06:44:25;;;;;;;11.80;3.97;;;;;;;;;;5085580;28;20024;-74
2021/08/06 06:48:13;;;;;;;7.43;3.13;;;;;;;;;;5101609;27;20438;-74
2021/08/06 06:50:40;;;;;;;13.68;3.25;;;;;;;;;;5101107;28;20031;-74
2021/08/06 06:53:06;;;;;;;9.45;3.50;;;;;;;;;;5107020;28;20143;-75
2021/08/06 06:55:32;;;;;;;11.82;3.28;;;;;;;;;;5102006;28;20027;-74
2021/08/06 06:57:59;;;;;;;7.32;2.92;;;;;;;;;;5104703;28;20024;-75
2021/08/06 07:00:27;;;;;;;7.35;2.75;;;;;;;;;;5106889;28;20015;-74
2021/08/06 07:02:53;;;;;;;10.77;3.35;;;;;;;;;;5107627;28;20023;-73
2021/08/06 07:05:19;;;;;;;13.07;3.95;;;;;;;;;;5105211;28;20555;-73
2021/08/06 07:07:46;;;;;;;9.88;4.18;;;;;;;;;;5108975;28;20031;-73
2021/08/06 07:10:12;;;;;;;8.77;3.42;;;;;;;;;;5103170;28;20024;-74
2021/08/06 07:12:40;;;;;;;12.27;3.95;;;;;;;;;;5111144;28;20101;-73
2021/08/06 07:15:07;;;;;;;7.15;3.30;;;;;;;;;;5107984;28;20475;-73
2021/08/06 07:17:34;;;;;;;12.32;4.47;;;;;;;;;;5102987;28;20018;-74
2021/08/06 07:20:00;;;;;;;12.32;3.83;;;;;;;;;;5099436;28;20120;-72
2021/08/06 07:22:27;;;;;;;7.85;3.67;;;;;;;;;;5101349;28;20044;-74
2021/08/06 07:24:53;;;;;;;13.02;3.72;;;;;;;;;;5100759;28;20066;-73
2021/08/06 07:27:20;;;;;;;10.15;4.07;;;;;;;;;;5101021;28;20067;-73
2021/08/06 07:29:46;;;;;;;7.07;3.78;;;;;;;;;;5103384;28;20019;-73
2021/08/06 07:32:13;;;;;;;9.35;3.55;;;;;;;;;;5098257;28;20111;-73
2021/08/06 07:34:39;;;;;;;9.38;3.58;;;;;;;;;;5103790;28;20927;-74
2021/08/06 07:37:05;;;;;;;14.82;3.50;;;;;;;;;;5098785;28;20028;-72
2021/08/06 07:39:31;;;;;;;11.45;3.67;;;;;;;;;;5101997;28;20020;-73
2021/08/06 07:41:57;;;;;;;9.93;3.47;;;;;;;;;;5110878;28;20165;-73
2021/08/06 07:44:24;;;;;;;8.02;3.00;;;;;;;;;;5107236;28;20031;-73
2021/08/06 07:46:50;;;;;;;11.75;3.50;;;;;;;;;;5109825;28;20123;-73
2021/08/06 07:49:16;;;;;;;9.77;3.25;;;;;;;;;;5110067;28;20028;-73
2021/08/06 07:51:42;;;;;;;9.65;4.13;;;;;;;;;;5109739;28;20020;-72
2021/08/06 07:54:09;;;;;;;9.77;3.70;;;;;;;;;;5108659;28;20058;-72
2021/08/06 07:56:35;;;;;;;8.40;3.70;;;;;;;;;;5108599;28;20024;-73
2021/08/06 07:59:01;;;;;;;7.50;3.58;;;;;;;;;;5097458;28;20087;-71
2021/08/06 08:01:27;;;;;;;7.40;3.40;;;;;;;;;;5096426;28;20024;-70
2021/08/06 08:03:54;;;;;;;6.00;3.28;;;;;;;;;;5096191;28;20020;-71
2021/08/06 08:06:20;;;;;;;6.57;3.30;;;;;;;;;;5095792;28;20021;-71
2021/08/06 08:08:46;;;;;;;5.80;2.78;;;;;;;;;;5094847;28;20038;-72
2021/08/06 08:11:13;;;;;;;5.95;2.92;;;;;;;;;;5095938;28;20095;-71
2021/08/06 08:13:39;;;;;;;8.13;3.55;;;;;;;;;;5094724;28;20100;-72
2021/08/06 08:16:05;;;;;;;6.85;2.95;;;;;;;;;;5096125;28;20024;-72
2021/08/06 08:18:31;;;;;;;9.45;2.97;;;;;;;;;;5094338;28;20479;-71
2021/08/06 08:20:58;;;;;;;5.72;2.85;;;;;;;;;;5095958;28;20028;-71
2021/08/06 08:23:24;;;;;;;5.10;2.53;;;;;;;;;;5094747;28;20048;-71
2021/08/06 08:25:54;;;;;;;5.65;3.00;;;;;;;;;;5095043;28;20028;-72
2021/08/06 08:28:23;;;;;;;6.57;2.90;;;;;;;;;;5095270;28;20078;-71
2021/08/06 08:30:50;;;;;;;6.63;3.30;;;;;;;;;;5072749;28;20025;-71
2021/08/06 08:33:20;;;;;;;9.45;2.58;;;;;;;;;;5072689;28;20038;-71
2021/08/06 08:35:47;;;;;;;9.25;3.33;;;;;;;;;;5074012;28;20044;-71
2021/08/06 08:38:14;;;;;;;6.40;3.20;;;;;;;;;;5073562;28;20030;-71
2021/08/06 08:40:40;;;;;;;5.93;2.92;;;;;;;;;;5073237;28;20020;-71
2021/08/06 08:43:07;;;;;;;7.20;3.15;;;;;;;;;;5077469;28;20032;-71
2021/08/06 08:45:36;;;;;;;5.15;2.83;;;;;;;;;;5075286;28;20027;-71
2021/08/06 08:48:02;;;;;;;7.47;3.70;;;;;;;;;;5076945;28;20560;-72
2021/08/06 08:50:29;;;;;;;8.60;3.72;;;;;;;;;;5074832;28;20052;-71
2021/08/06 08:52:55;;;;;;;7.38;3.28;;;;;;;;;;5075884;28;20063;-72
2021/08/06 08:55:21;;;;;;;6.78;3.20;;;;;;;;;;5076810;28;20420;-72
2021/08/06 08:57:47;;;;;;;8.25;2.90;;;;;;;;;;5077154;28;20016;-72
2021/08/06 09:00:16;;;;;;;9.02;3.42;;;;;;;;;;5074358;28;20031;-72
2021/08/06 09:02:42;;;;;;;12.05;3.95;;;;;;;;;;5075108;28;20016;-72
2021/08/06 09:05:08;;;;;;;7.07;3.00;;;;;;;;;;5069014;28;20047;-72
2021/08/06 09:07:34;;;;;;;7.82;3.38;;;;;;;;;;5076663;28;20024;-72
2021/08/06 09:10:11;;;;;;;6.93;3.50;;;;;;;;;;5073921;28;20105;-72
2021/08/06 09:12:51;;;;;;;5.63;2.80;;;;;;;;;;5075538;28;20043;-71
2021/08/06 09:15:18;;;;;;;6.10;3.70;;;;;;;;;;5076070;28;20027;-71
2021/08/06 09:17:44;;;;;;;12.23;3.38;;;;;;;;;;5073648;28;20016;-71
2021/08/06 09:20:11;;;;;;;5.78;3.00;;;;;;;;;;5068508;28;20028;-71
2021/08/06 09:22:41;;;;;;;7.32;3.25;;;;;;;;;;5080137;28;20399;-71
2021/08/06 09:25:14;;;;;;;6.50;3.00;;;;;;;;;;5079989;28;20451;-72
2021/08/06 09:27:45;;;;;;;6.45;2.75;;;;;;;;;;5073836;28;20035;-71
2021/08/06 09:30:31;;;;;;;7.32;3.13;;;;;;;;;;5071694;28;20020;-72
2021/08/06 09:32:58;;;;;;;7.50;3.30;;;;;;;;;;5076648;28;20039;-72
2021/08/06 09:35:28;;;;;;;10.57;3.22;;;;;;;;;;5074927;28;20099;-72
2021/08/06 09:37:55;;;;;;;6.50;3.00;;;;;;;;;;5077955;28;20722;-71
2021/08/06 09:40:23;;;;;;;7.97;3.33;;;;;;;;;;5070789;28;20028;-71
2021/08/06 09:42:54;;;;;;;6.90;2.83;;;;;;;;;;5075338;28;21171;-71
2021/08/06 09:45:22;;;;;;;7.63;3.53;;;;;;;;;;5076744;28;20028;-70
2021/08/06 09:47:55;;;;;;;6.90;2.85;;;;;;;;;;5073623;28;20047;-72
2021/08/06 09:50:23;;;;;;;4.60;2.63;;;;;;;;;;5077018;28;20020;-71
2021/08/06 09:52:51;;;;;;;9.07;3.67;;;;;;;;;;5073816;28;20504;-69
2021/08/06 09:55:22;;;;;;;4.72;2.65;;;;;;;;;;5074344;28;20119;-71
2021/08/06 09:57:48;;;;;;;4.75;3.00;;;;;;;;;;5072387;28;20093;-70
2021/08/06 10:00:15;;;;;;;7.72;3.58;;;;;;;;;;5073367;28;20023;-69
2021/08/06 10:02:42;;;;;;;6.55;2.97;;;;;;;;;;5070235;28;20051;-70
2021/08/06 10:05:14;;;;;;;6.18;3.30;;;;;;;;;;5074204;28;20061;-70
2021/08/06 10:07:41;;;;;;;5.13;2.85;;;;;;;;;;5076248;28;20024;-70
2021/08/06 10:10:09;;;;;;;6.07;2.55;;;;;;;;;;5072804;28;20480;-70
2021/08/06 10:12:35;;;;;;;5.85;2.83;;;;;;;;;;5070760;28;20024;-70
2021/08/06 10:15:02;;;;;;;6.25;2.88;;;;;;;;;;5072828;28;20135;-69
2021/08/06 10:17:28;;;;;;;5.32;2.80;;;;;;;;;;5075550;28;20072;-70
2021/08/06 10:19:54;;;;;;;4.47;2.60;;;;;;;;;;5075265;28;20035;-69
2021/08/06 10:22:21;;;;;;;6.93;3.20;;;;;;;;;;5076879;28;20028;-69
2021/08/06 10:24:49;;;;;;;6.85;2.67;;;;;;;;;;5070662;28;20143;-69
2021/08/06 10:27:19;;;;;;;5.38;2.67;;;;;;;;;;5070629;28;20581;-69
2021/08/06 10:30:14;;;;;;;4.22;2.53;;;;;;;;;;5074471;28;20028;-70
2021/08/06 10:32:41;;;;;;;6.95;3.00;;;;;;;;;;5063383;28;20059;-70
2021/08/06 10:35:07;;;;;;;9.35;4.15;;;;;;;;;;5074762;28;20027;-70
2021/08/06 10:37:55;;;;;;;7.68;3.30;;;;;;;;;;5070938;28;20020;-70
2021/08/06 10:40:34;;;;;;;6.85;3.08;;;;;;;;;;5077229;28;20113;-68
2021/08/06 10:43:01;;;;;;;5.88;3.20;;;;;;;;;;5097784;28;20024;-68
2021/08/06 10:45:49;;;;;;;6.53;3.42;;;;;;;;;;5113893;28;20031;-68
2021/08/06 10:48:27;;;;;;;6.93;3.33;;;;;;;;;;5112058;28;20070;-68
2021/08/06 10:51:12;;;;;;;8.23;2.90;;;;;;;;;;5113747;28;20019;-68
2021/08/06 10:53:45;;;;;;;7.07;2.92;;;;;;;;;;5111155;28;20165;-68
2021/08/06 10:56:27;;;;;;;7.18;3.33;;;;;;;;;;5112472;28;20082;-68
2021/08/06 10:58:53;;;;;;;9.43;3.70;;;;;;;;;;5113557;28;20053;-68
2021/08/06 11:01:26;;;;;;;6.57;2.92;;;;;;;;;;5113307;28;20051;-70
2021/08/06 11:03:56;;;;;;;11.80;3.88;;;;;;;;;;5113636;28;20027;-69
2021/08/06 11:06:31;;;;;;;5.40;2.85;;;;;;;;;;5113545;28;20032;-69
2021/08/06 11:08:58;;;;;;;8.32;3.10;;;;;;;;;;5111751;28;20380;-70
2021/08/06 11:11:43;;;;;;;6.53;3.10;;;;;;;;;;5112418;28;20477;-68
2021/08/06 11:14:10;;;;;;;6.18;2.92;;;;;;;;;;5113126;28;20027;-67
2021/08/06 11:16:56;;;;;;;7.00;3.33;;;;;;;;;;5113540;28;20081;-68
2021/08/06 11:19:41;;;;;;;5.68;3.20;;;;;;;;;;5113656;28;20030;-68
2021/08/06 11:22:26;;;;;;;5.00;3.10;;;;;;;;;;5112689;28;20048;-69
2021/08/06 11:24:53;;;;;;;6.80;3.63;;;;;;;;;;5113407;28;20081;-69
2021/08/06 11:27:20;;;;;;;4.45;2.88;;;;;;;;;;5112504;28;20039;-70
2021/08/06 11:30:07;;;;;;;6.78;3.03;;;;;;;;;;5111845;28;20068;-70
2021/08/06 11:32:52;;;;;;;7.35;3.58;;;;;;;;;;5113017;28;20385;-71
2021/08/06 11:35:19;;;;;;;7.97;3.90;;;;;;;;;;5116929;28;20475;-68
2021/08/06 11:37:53;;;;;;;7.88;3.25;;;;;;;;;;5115587;28;20110;-69
2021/08/06 11:40:21;;;;;;;8.50;3.88;;;;;;;;;;5115926;28;20049;-68
2021/08/06 11:42:48;;;;;;;6.82;3.55;;;;;;;;;;5116575;28;20035;-69
2021/08/06 11:45:16;;;;;;;4.95;2.88;;;;;;;;;;5117265;28;20073;-69
2021/08/06 11:47:48;;;;;;;7.78;3.40;;;;;;;;;;5116836;28;20047;-68
2021/08/06 11:50:16;;;;;;;5.20;2.72;;;;;;;;;;5116059;28;20385;-69
2021/08/06 11:52:46;;;;;;;6.47;2.85;;;;;;;;;;5117026;28;20102;-68
2021/08/06 11:55:18;;;;;;;5.93;3.28;;;;;;;;;;5116842;28;20026;-69
2021/08/06 11:57:45;;;;;;;4.50;2.58;;;;;;;;;;5116456;28;20030;-68
2021/08/06 12:00:18;;;;;;;5.60;2.70;;;;;;;;;;5115253;28;20034;-69
2021/08/06 12:02:45;;;;;;;6.30;2.78;;;;;;;;;;5116781;28;20099;-68
2021/08/06 12:05:21;;;;;;;5.72;2.53;;;;;;;;;;5075568;28;20522;-69
2021/08/06 12:07:47;;;;;;;7.43;4.55;;;;;;;;;;5085223;28;20036;-69
2021/08/06 12:10:13;;;;;;;7.13;3.13;;;;;;;;;;5095817;28;20372;-69
2021/08/06 12:12:39;;;;;;;8.63;2.40;;;;;;;;;;5095559;28;20035;-69
2021/08/06 12:15:22;;;;;;;7.00;2.88;;;;;;;;;;5095159;28;20069;-69
2021/08/06 12:17:48;;;;;;;5.57;3.03;;;;;;;;;;5095717;28;20024;-71
2021/08/06 12:20:33;;;;;;;7.88;2.85;;;;;;;;;;5095881;28;20118;-69
2021/08/06 12:23:00;;;;;;;6.75;2.50;;;;;;;;;;5095848;28;20095;-69
2021/08/06 12:25:26;;;;;;;4.85;2.72;;;;;;;;;;5095297;28;20024;-69
2021/08/06 12:27:52;;;;;;;11.68;3.08;;;;;;;;;;5096226;28;20035;-70
2021/08/06 12:30:28;;;;;;;5.10;2.90;;;;;;;;;;5095888;28;20024;-70
2021/08/06 12:32:54;;;;;;;4.47;2.42;;;;;;;;;;5095412;28;20039;-70
2021/08/06 12:35:21;;;;;;;5.53;2.30;;;;;;;;;;5095760;28;20427;-70
2021/08/06 12:37:47;;;;;;;7.72;2.92;;;;;;;;;;5095678;28;20050;-69
2021/08/06 12:40:13;;;;;;;4.72;2.42;;;;;;;;;;5094012;28;20036;-69
2021/08/06 12:42:40;;;;;;;6.25;3.58;;;;;;;;;;5095555;28;20024;-69
2021/08/06 12:45:06;;;;;;;4.80;2.50;;;;;;;;;;5095560;28;20024;-69
2021/08/06 12:47:41;;;;;;;5.07;2.50;;;;;;;;;;5094895;28;20048;-69
2021/08/06 12:50:08;;;;;;;5.70;2.75;;;;;;;;;;5095495;28;20024;-69
2021/08/06 12:52:36;;;;;;;5.15;2.83;;;;;;;;;;5095015;28;20020;-69
2021/08/06 12:55:06;;;;;;;9.63;3.22;;;;;;;;;;5095534;28;20024;-69
2021/08/06 12:57:46;;;;;;;5.25;2.67;;;;;;;;;;5093986;28;20032;-70
2021/08/06 13:00:22;;;;;;;3.88;2.45;;;;;;;;;;5095011;28;20028;-69
2021/08/06 13:03:00;;;;;;;5.10;2.50;;;;;;;;;;5095498;28;20422;-69
2021/08/06 13:05:27;;;;;;;3.15;2.20;;;;;;;;;;5095197;28;20024;-69
2021/08/06 13:07:53;;;;;;;4.32;2.20;;;;;;;;;;5093326;28;20034;-69
2021/08/06 13:10:30;;;;;;;3.88;2.55;;;;;;;;;;5095125;28;20062;-70
2021/08/06 13:12:57;;;;;;;3.72;2.53;;;;;;;;;;5095244;28;20024;-70
2021/08/06 13:15:23;;;;;;;4.97;2.40;;;;;;;;;;5094576;28;20048;-70
2021/08/06 13:17:50;;;;;;;5.30;2.53;;;;;;;;;;5095012;28;20541;-70
2021/08/06 13:20:16;;;;;;;3.97;2.65;;;;;;;;;;5093652;28;20032;-70
2021/08/06 13:22:42;;;;;;;6.93;3.30;;;;;;;;;;5094211;28;20039;-70
2021/08/06 13:25:10;;;;;;;7.47;2.50;;;;;;;;;;5094862;28;20048;-70
2021/08/06 13:27:36;;;;;;;4.82;2.53;;;;;;;;;;5094439;28;20036;-69
2021/08/06 13:30:05;;;;;;;5.40;2.22;;;;;;;;;;5093402;28;20028;-69
2021/08/06 13:32:31;;;;;;;5.90;2.50;;;;;;;;;;5094673;28;20028;-69
2021/08/06 13:34:57;;;;;;;4.47;2.25;;;;;;;;;;5094367;28;20179;-69
2021/08/06 13:37:23;;;;;;;3.67;2.10;;;;;;;;;;5093192;28;20024;-69
2021/08/06 13:39:49;;;;;;;3.72;2.08;;;;;;;;;;5094799;28;20050;-69
2021/08/06 13:42:16;;;;;;;4.30;2.20;;;;;;;;;;5094065;28;20028;-69
2021/08/06 13:44:42;;;;;;;3.97;2.22;;;;;;;;;;5094496;28;20036;-69
2021/08/06 13:47:08;;;;;;;6.55;2.67;;;;;;;;;;5094226;28;20496;-70
2021/08/06 13:49:35;;;;;;;5.40;2.15;;;;;;;;;;5093998;28;20077;-70
2021/08/06 13:52:01;;;;;;;3.35;2.35;;;;;;;;;;5094369;28;20392;-70
2021/08/06 13:54:27;;;;;;;5.43;2.55;;;;;;;;;;5094279;28;20077;-70
2021/08/06 13:56:54;;;;;;;6.10;2.28;;;;;;;;;;5093458;28;20065;-70
2021/08/06 13:59:20;;;;;;;5.38;2.80;;;;;;;;;;5092901;28;20027;-69
2021/08/06 14:01:47;;;;;;;5.00;2.45;;;;;;;;;;5093178;28;20385;-69
2021/08/06 14:04:13;;;;;;;3.83;2.42;;;;;;;;;;5092424;28;20483;-70
2021/08/06 14:06:40;;;;;;;8.75;2.78;;;;;;;;;;5094270;28;20039;-70
2021/08/06 14:09:06;;;;;;;3.75;2.05;;;;;;;;;;5094648;28;20056;-70
2021/08/06 14:11:33;;;;;;;6.47;2.63;;;;;;;;;;5093565;28;20020;-69
2021/08/06 14:13:59;;;;;;;5.18;2.55;;;;;;;;;;5093913;28;20484;-69
2021/08/06 14:16:25;;;;;;;5.40;2.33;;;;;;;;;;5093882;28;20056;-69
2021/08/06 14:18:53;;;;;;;6.93;2.20;;;;;;;;;;5092303;28;20024;-69
2021/08/06 14:21:19;;;;;;;5.18;2.60;;;;;;;;;;5094153;28;20028;-70
2021/08/06 14:23:46;;;;;;;4.25;2.50;;;;;;;;;;5093804;28;20091;-69
2021/08/06 14:26:13;;;;;;;5.93;2.20;;;;;;;;;;5093216;28;20042;-69
2021/08/06 14:28:39;;;;;;;3.10;2.05;;;;;;;;;;5093753;28;20028;-69
2021/08/06 14:31:10;;;;;;;4.38;2.08;;;;;;;;;;5093356;28;20022;-69
2021/08/06 14:33:42;;;;;;;4.03;2.40;;;;;;;;;;5093905;28;20024;-69
2021/08/06 14:36:09;;;;;;;6.95;2.80;;;;;;;;;;5093903;28;20022;-70
2021/08/06 14:38:35;;;;;;;6.40;2.15;;;;;;;;;;5093406;28;20028;-69
2021/08/06 14:41:01;;;;;;;3.97;2.53;;;;;;;;;;5093667;28;20034;-69
2021/08/06 14:43:27;;;;;;;4.95;2.53;;;;;;;;;;5093723;28;20056;-69
2021/08/06 14:45:54;;;;;;;6.20;2.38;;;;;;;;;;5093053;28;20051;-69
2021/08/06 14:48:20;;;;;;;3.53;2.00;;;;;;;;;;5094060;28;20064;-70